Paine Field

Airport
ICAO code: 
KPAE
IATA Code: 
PAE
Summary
ICAO Region: 
NAM
Territory: 
Location: 
Everett, Snohomish County, Washington
Serving: 
Everett, Snohomish County
Elevation: 
606 ft
Coordinates: 
Aerial View: 
47° 54' 25.32" N, 122° 16' 53.664" W
Metar
Observation
KPAE 021553Z 33007KT 10SM OVC038 07/05 A3024 RMK AO2 RAB32E41 SLP242 P0000 T00720050
Station
Everett, Snohomish County Airport
Date/Time
2021-12-02 15:53:00
Wind direction
330°
Wind speed
07 kts
Lowest cloud amount
overcast
Temperature
7.2°C
Dew point
5°C
Humidity
85%
Weather condition
n/a

Runways

Designator Length Width Surface Rops
16L/34R 914 23 ASP Yes/Yes
11/29 1376 23 ASP Yes/Yes
16R/34L 2746 46 ASP Yes/Yes
Airport map: 
Aerial View: 

SKYbrary Partners:

Safety knowledge contributed by: